Sie sind vermutlich noch nicht im Forum angemeldet - Klicken Sie hier um sich kostenlos anzumelden  

Synchrondatenbank (von Arne Kaul) | Deutsche Synchronkartei | Seriensynchron - SeSyDaB | dubDB | Die vergessenen Filme || Datenschutz
Sie können sich hier anmelden
Dieses Forum hat 1.062 Themen
und zur Zeit 17.536 Beiträge
Sie haben keine Schreibrechte
 Games  »Neues Thema erstellen«
Forum Information
   Betreff Absender Antworten Zugriffe Letzter Beitrag
You don't know Jack Lammers 7 1.805 01.02.2011 00:04
TRON: Evolution (2010) Kirk20 6 1.372 25.01.2011 17:48
Spider-Man 2 (2004) Persian 4 1.441 23.01.2011 13:17
DC Universe Online (2010/2011) (1, 2) Metro 23 1.816 21.01.2011 15:47
Medal of Honor (2010) Kirk20 0 442 19.01.2011 22:02
Looney Tunes: Back in Action (2003) Kirk20 0 792 14.01.2011 12:33
Think Fast - Das Schnelldenker-Quiz batman 4 554 12.01.2011 17:32
Disneys Tiggers Honigjagd (2000) Kirk20 0 535 11.01.2011 16:16
Dragon Age: Origins - Awakening (2010) (1, 2) lysander 18 3.158 11.01.2011 00:27
ArcaniA Gothic 4 (1, 2, 3, 4) Persian 50 8.024 08.01.2011 18:47
Robert Ludlum's Das Bourne Komplott (2008) Kirk20 0 529 08.01.2011 13:29
Vanquish Topper Harley 8 1.825 03.01.2011 19:36
Little Big Planet (1, 2, 3, 4, 5) Topper Harley 65 8.561 29.12.2010 16:59
Gothic 3: Götterdämmerung (2008) SFC 7 1.460 28.12.2010 11:47
Dungeon Keeper 2 gewuerzwiesel 2 817 27.12.2010 22:47
Gray Matter (2010) Jochen 8 1.109 24.12.2010 14:31
Majesty 2 (2009) [Um Mithilfe gebeten] Alamar 5 478 23.12.2010 20:27
Star Wars - The Force Unleashed II (1, 2, 3) Metro 35 5.038 18.12.2010 14:08
Alter Ego (2010) Kirk20 11 974 12.12.2010 12:25
GoldenEye 007 Topper Harley 2 767 12.12.2010 12:16
Harry Potter und die Heiligtümer des Todes - Teil 1 (2010) Kirk20 4 2.451 08.12.2010 15:08
Battlefield: Bad Company (2008) Kirk20 0 1.072 01.12.2010 19:11
Star Wars Episode III - Die Rache der Sith (2005) Torben 2 700 26.11.2010 01:48
Harry Potter und der Feuerkelch (2005) Kirk20 0 741 26.11.2010 01:39
The Scorpion King - Aufstieg des Akkadiers (2002) Torben 0 843 24.11.2010 16:27
Divinity 2 - The Dragon Knight Saga Alamar 2 2.257 24.11.2010 01:14
Myst V: End of Ages (2005) Kirk20 0 447 23.11.2010 14:50
Top Gun: Fire at Will! (1996) Kirk20 0 1.013 23.11.2010 12:38
Captain Buzz Lightyear – Star Command (2000) Kirk20 5 510 21.11.2010 16:35
Harry Potter und der Gefangene von Askaban (2004) Kirk20 1 3.432 18.11.2010 20:17
Fenimore Fillmore: The Westerner (2004) Kirk20 1 1.461 17.11.2010 21:42
Oben (2009) Kirk20 1 502 14.11.2010 21:45
Disneys Donald Duck: Phantomias - Platyrhynchos Kineticus (2002) Kirk20 0 863 14.11.2010 19:49
Tony Tough and the Night of Roasted Moths (2003) Kirk20 0 466 13.11.2010 20:17
Command & Conquer: Alarmstufe Rot 3 (2008) (1, 2, 3) Commander 33 3.535 13.11.2010 18:27
Batman Begins (2005) Kirk20 1 559 13.11.2010 12:57
Darkstar One (2006) Kirk20 1 1.880 12.11.2010 19:39
Lands of Lore III (1999) Kirk20 0 1.477 11.11.2010 16:15
Der Herr der Ringe: Die Abenteuer von Aragorn (2010) Kirk20 10 1.182 05.11.2010 20:10
Professor Layton und die verlorene Zukunft Alamar 3 1.160 05.11.2010 17:07
 Sprung Seite « zurück  1 - 15  16  17  18  19  20  21  22 - 27  weiter »

Farb-Legende: blau = Spekulation, orange = Trailer-Besetzung, grün = endgültige Besetzung, rot = Korrektur/Ergänzung zur endgültigen Besetzung


Wir lieben Synchron.
Erreichbar unter
215072.homepagemodules.de -- forum.serien-synchron.de -- forum.seriensynchron.de

Weitere Smileys auf www.smilie-harvester.de


Xobor Forum Software von Xobor | Forum, Fotos, Chat und mehr mit Xobor
Datenschutz